Time;durP1;ratioP1;P1;durP2;ratioP2;P2;SDS_P1;SDS_P2;PMS_P1;PMS_P2;Temp;Humidity;BMP_temperature;BMP_pressure;BME280_temperature;BME280_humidity;BME280_pressure;Samples;Min_cycle;Max_cycle;Signal;HPM_P1;HPM_P2
2021/11/26 00:00:37;;;;;;;5.20;4.75;;;3.90;99.90;;;;;;5003222;28;20254;-78
2021/11/26 00:03:04;;;;;;;5.50;5.10;;;3.90;99.90;;;;;;5009440;28;20232;-76
2021/11/26 00:05:32;;;;;;;5.55;5.15;;;3.90;99.90;;;;;;5007121;28;20222;-74
2021/11/26 00:07:59;;;;;;;5.43;5.00;;;4.00;99.90;;;;;;5001391;28;20268;-77
2021/11/26 00:10:26;;;;;;;6.05;5.55;;;4.00;99.90;;;;;;5006742;28;20219;-77
2021/11/26 00:12:56;;;;;;;5.38;4.97;;;4.00;99.90;;;;;;5009282;28;20228;-77
2021/11/26 00:15:37;;;;;;;5.88;5.43;;;4.00;99.90;;;;;;5003055;28;20227;-78
2021/11/26 00:18:08;;;;;;;5.70;5.20;;;3.90;99.90;;;;;;5007579;28;20223;-77
2021/11/26 00:20:36;;;;;;;5.53;5.13;;;3.90;99.90;;;;;;5006801;28;20250;-78
2021/11/26 00:23:04;;;;;;;6.20;5.63;;;3.90;99.90;;;;;;5004542;28;20223;-77
2021/11/26 00:25:31;;;;;;;6.97;6.28;;;3.90;99.90;;;;;;5007144;28;20290;-76
2021/11/26 00:27:58;;;;;;;5.93;5.43;;;3.90;99.90;;;;;;5004336;28;20227;-78
2021/11/26 00:30:25;;;;;;;6.50;5.13;;;3.80;99.90;;;;;;4998069;28;20223;-79
2021/11/26 00:32:52;;;;;;;5.50;5.00;;;3.80;99.90;;;;;;5001936;28;20228;-78
2021/11/26 00:35:21;;;;;;;5.13;4.72;;;3.80;99.90;;;;;;5001747;28;20220;-77
2021/11/26 00:37:48;;;;;;;4.65;4.32;;;3.90;99.90;;;;;;5001237;28;20224;-78
2021/11/26 00:40:16;;;;;;;5.40;5.00;;;4.00;99.90;;;;;;5000211;28;20220;-78
2021/11/26 00:42:43;;;;;;;5.03;4.53;;;4.00;99.90;;;;;;4997182;28;20224;-78
2021/11/26 00:45:13;;;;;;;5.55;5.05;;;4.00;99.90;;;;;;5001317;28;20228;-78
2021/11/26 00:47:41;;;;;;;5.90;5.40;;;4.00;99.90;;;;;;5010014;28;20227;-77
2021/11/26 00:50:10;;;;;;;5.40;5.00;;;4.00;99.90;;;;;;5004383;28;20223;-77
2021/11/26 00:52:38;;;;;;;5.60;5.10;;;4.00;99.90;;;;;;4939471;28;20267;-78
2021/11/26 00:55:07;;;;;;;5.53;5.13;;;4.00;99.90;;;;;;5000734;28;20228;-77
2021/11/26 00:57:34;;;;;;;5.43;5.03;;;4.00;99.90;;;;;;5003388;28;20220;-78
2021/11/26 01:00:01;;;;;;;5.32;4.93;;;3.90;99.90;;;;;;5004078;28;20597;-77
2021/11/26 01:02:28;;;;;;;5.38;4.97;;;4.00;99.90;;;;;;4999670;28;20227;-78
2021/11/26 01:04:55;;;;;;;5.20;4.80;;;4.00;99.90;;;;;;5000410;28;20223;-76
2021/11/26 01:07:22;;;;;;;5.28;4.78;;;4.00;99.90;;;;;;5003462;28;20216;-78
2021/11/26 01:09:51;;;;;;;5.40;4.90;;;4.10;99.90;;;;;;5003173;28;20609;-78
2021/11/26 01:12:18;;;;;;;5.65;5.15;;;4.10;99.90;;;;;;5008339;28;20228;-78
2021/11/26 01:14:45;;;;;;;5.47;5.00;;;4.10;99.90;;;;;;5009034;28;20587;-76
2021/11/26 01:17:12;;;;;;;5.70;5.30;;;4.10;99.90;;;;;;5003557;28;20215;-77
2021/11/26 01:19:40;;;;;;;5.53;4.97;;;4.10;99.90;;;;;;5007124;28;20307;-78
2021/11/26 01:22:07;;;;;;;6.20;5.70;;;4.10;99.90;;;;;;5004662;28;20235;-78
2021/11/26 01:24:34;;;;;;;6.68;6.10;;;4.00;99.90;;;;;;5005038;28;20227;-77
2021/11/26 01:27:06;;;;;;;6.35;5.75;;;4.00;99.90;;;;;;5004850;28;20228;-78
2021/11/26 01:29:33;;;;;;;4.78;4.38;;;4.00;99.90;;;;;;4952395;28;20232;-77
2021/11/26 01:32:00;;;;;;;5.82;5.22;;;4.00;99.90;;;;;;5013234;28;20231;-77
2021/11/26 01:34:28;;;;;;;5.75;5.30;;;4.00;99.90;;;;;;5004759;28;20267;-78
2021/11/26 01:36:55;;;;;;;5.50;5.10;;;4.00;99.90;;;;;;5003238;28;20228;-77
2021/11/26 01:39:22;;;;;;;6.05;5.55;;;4.00;99.90;;;;;;5002338;28;20232;-78
2021/11/26 01:41:51;;;;;;;6.15;5.65;;;4.00;99.90;;;;;;5002728;28;20630;-77
2021/11/26 01:44:20;;;;;;;6.18;5.63;;;4.00;99.90;;;;;;4991769;28;20227;-76
2021/11/26 01:46:47;;;;;;;6.30;5.80;;;4.00;99.90;;;;;;5006787;28;20235;-78
2021/11/26 01:49:15;;;;;;;5.28;4.88;;;4.00;99.90;;;;;;5002935;28;20224;-78
2021/11/26 01:51:43;;;;;;;6.28;5.68;;;4.00;99.90;;;;;;5005872;28;20227;-77
2021/11/26 01:54:11;;;;;;;5.90;5.40;;;4.00;99.90;;;;;;5003218;28;20728;-77
2021/11/26 01:56:38;;;;;;;6.30;5.70;;;3.90;99.90;;;;;;4998695;28;20216;-77
2021/11/26 01:59:06;;;;;;;6.07;5.57;;;3.90;99.90;;;;;;5001967;28;20618;-78
2021/11/26 02:01:34;;;;;;;6.45;5.95;;;3.80;99.90;;;;;;4982864;28;20248;-79
2021/11/26 02:04:01;;;;;;;6.45;5.95;;;3.70;99.90;;;;;;4998149;28;20226;-78
2021/11/26 02:06:29;;;;;;;6.15;5.60;;;3.60;99.90;;;;;;5007661;28;20223;-77
2021/11/26 02:08:56;;;;;;;5.97;5.38;;;3.60;99.90;;;;;;5011829;28;20215;-77
2021/11/26 02:11:23;;;;;;;5.68;5.15;;;3.60;99.90;;;;;;5007691;28;20593;-77
2021/11/26 02:13:50;;;;;;;6.43;5.85;;;3.70;99.90;;;;;;5011270;28;20228;-79
2021/11/26 02:16:17;;;;;;;5.95;5.43;;;3.70;99.90;;;;;;5006599;28;20227;-77
2021/11/26 02:18:48;;;;;;;5.55;5.15;;;3.80;99.90;;;;;;5004688;28;20227;-77
2021/11/26 02:21:19;;;;;;;6.22;5.72;;;3.80;99.90;;;;;;5007057;28;20240;-78
2021/11/26 02:23:47;;;;;;;5.70;5.25;;;3.80;99.90;;;;;;5006460;28;20220;-77
2021/11/26 02:26:14;;;;;;;6.07;5.57;;;3.90;99.90;;;;;;5006093;28;20568;-78
2021/11/26 02:28:42;;;;;;;5.88;5.47;;;3.90;99.90;;;;;;5003094;28;20224;-77
2021/11/26 02:31:09;;;;;;;5.30;4.90;;;3.90;99.90;;;;;;5010421;28;20231;-77
2021/11/26 02:33:36;;;;;;;5.85;5.35;;;3.90;99.90;;;;;;4997157;28;20224;-77
2021/11/26 02:36:04;;;;;;;5.30;4.90;;;3.90;99.90;;;;;;5002359;28;20826;-74
2021/11/26 02:38:32;;;;;;;6.32;5.80;;;3.80;99.90;;;;;;5002202;28;20232;-76
2021/11/26 02:40:59;;;;;;;5.97;5.38;;;3.80;99.90;;;;;;4999667;28;20223;-77
2021/11/26 02:43:26;;;;;;;7.82;7.15;;;3.80;99.90;;;;;;5006539;28;20494;-78
2021/11/26 02:45:54;;;;;;;6.07;5.57;;;3.80;99.90;;;;;;4962366;28;20702;-78
2021/11/26 02:48:21;;;;;;;6.03;5.57;;;3.70;99.90;;;;;;5015572;28;20228;-78
2021/11/26 02:50:49;;;;;;;5.65;5.25;;;3.80;99.90;;;;;;5002174;28;20220;-77
2021/11/26 02:53:17;;;;;;;5.53;5.13;;;3.80;99.90;;;;;;5001380;28;20224;-78
2021/11/26 02:55:46;;;;;;;5.65;5.25;;;3.80;99.90;;;;;;5004963;28;20610;-77
2021/11/26 02:58:13;;;;;;;5.82;5.30;;;3.90;99.90;;;;;;5005607;28;20228;-77
2021/11/26 03:00:43;;;;;;;6.20;5.70;;;3.90;99.90;;;;;;5003517;28;20221;-78
2021/11/26 03:03:11;;;;;;;6.28;5.07;;;3.90;99.90;;;;;;5011648;28;20699;-78
2021/11/26 03:05:38;;;;;;;6.13;5.70;;;3.90;99.90;;;;;;4989834;28;20238;-78
2021/11/26 03:08:06;;;;;;;5.80;5.30;;;3.80;99.90;;;;;;5000225;28;20517;-78
2021/11/26 03:10:34;;;;;;;5.60;5.10;;;3.80;99.90;;;;;;4981333;28;20470;-77
2021/11/26 03:13:06;;;;;;;5.53;5.13;;;3.80;99.90;;;;;;5002551;28;20224;-78
2021/11/26 03:15:35;;;;;;;6.95;6.35;;;3.70;99.90;;;;;;4999948;28;20224;-77
2021/11/26 03:18:03;;;;;;;6.47;5.90;;;3.70;99.90;;;;;;5011015;28;20227;-78
2021/11/26 03:20:31;;;;;;;6.13;5.53;;;3.70;99.90;;;;;;5000279;28;20247;-78
2021/11/26 03:22:58;;;;;;;5.60;5.20;;;3.70;99.90;;;;;;5005678;28;20227;-78
2021/11/26 03:25:26;;;;;;;5.57;5.18;;;3.70;99.90;;;;;;5004720;28;20216;-78
2021/11/26 03:27:54;;;;;;;5.53;4.97;;;3.80;99.90;;;;;;5001906;28;20228;-77
2021/11/26 03:30:23;;;;;;;5.20;4.80;;;3.80;99.90;;;;;;5004359;28;20255;-77
2021/11/26 03:32:52;;;;;;;5.40;5.00;;;3.90;99.90;;;;;;5002148;28;20366;-77
2021/11/26 03:35:21;;;;;;;5.88;5.47;;;3.90;99.90;;;;;;5005469;28;20220;-77
2021/11/26 03:37:49;;;;;;;5.32;4.90;;;3.90;99.90;;;;;;4974399;28;20254;-77
2021/11/26 03:40:18;;;;;;;5.35;4.85;;;3.90;99.90;;;;;;5000813;28;20223;-77
2021/11/26 03:42:46;;;;;;;5.55;5.10;;;4.00;99.90;;;;;;5007124;28;20282;-78
2021/11/26 03:45:15;;;;;;;5.50;5.00;;;4.10;99.90;;;;;;5002817;28;20220;-78
2021/11/26 03:47:43;;;;;;;5.00;4.60;;;4.10;99.90;;;;;;5010018;22;20229;-75
2021/11/26 03:50:12;;;;;;;5.20;4.72;;;4.10;99.90;;;;;;4876469;28;20220;-74
2021/11/26 03:52:39;;;;;;;5.40;4.90;;;4.10;99.90;;;;;;5002529;28;20229;-76
2021/11/26 03:55:09;;;;;;;5.18;4.78;;;4.10;99.90;;;;;;5011031;28;20231;-74
2021/11/26 03:57:36;;;;;;;6.13;4.85;;;4.00;99.90;;;;;;5029034;28;20706;-76
2021/11/26 04:00:06;;;;;;;5.45;4.95;;;4.00;99.90;;;;;;5019972;28;20232;-73
2021/11/26 04:02:33;;;;;;;4.95;4.55;;;4.00;99.90;;;;;;5016907;28;20227;-72
2021/11/26 04:05:01;;;;;;;4.93;4.53;;;4.00;99.90;;;;;;5015774;28;20263;-75
2021/11/26 04:07:28;;;;;;;4.80;4.40;;;4.00;99.90;;;;;;5019968;28;20626;-75
2021/11/26 04:09:56;;;;;;;4.93;4.63;;;4.00;99.90;;;;;;5000283;28;20928;-74
2021/11/26 04:12:23;;;;;;;4.78;4.47;;;4.10;99.90;;;;;;5036379;28;20312;-73
2021/11/26 04:14:53;;;;;;;5.20;4.80;;;4.10;99.90;;;;;;5027220;28;20225;-74
2021/11/26 04:17:21;;;;;;;5.50;5.10;;;4.10;99.90;;;;;;5015764;28;20610;-73
2021/11/26 04:19:48;;;;;;;4.50;4.20;;;4.10;99.90;;;;;;5015556;28;20227;-77
2021/11/26 04:22:17;;;;;;;5.30;4.90;;;4.20;99.90;;;;;;5014443;28;20226;-73
2021/11/26 04:24:44;;;;;;;5.25;4.85;;;4.20;99.90;;;;;;4996416;28;20230;-75
2021/11/26 04:27:11;;;;;;;4.55;4.22;;;4.20;99.90;;;;;;5036649;28;20225;-73
2021/11/26 04:29:38;;;;;;;4.60;4.20;;;4.20;99.90;;;;;;5017843;28;20219;-73
2021/11/26 04:32:07;;;;;;;4.40;4.10;;;4.20;99.90;;;;;;5018536;28;20262;-75
2021/11/26 04:34:34;;;;;;;4.90;4.57;;;4.20;99.90;;;;;;5018947;28;20223;-75
2021/11/26 04:37:01;;;;;;;5.28;4.88;;;4.20;99.90;;;;;;5013094;28;20231;-75
2021/11/26 04:39:29;;;;;;;5.10;4.70;;;4.20;99.90;;;;;;4992179;28;20215;-75
2021/11/26 04:41:56;;;;;;;4.82;4.43;;;4.20;99.90;;;;;;4987472;28;20225;-74
2021/11/26 04:44:24;;;;;;;4.82;4.43;;;4.20;99.90;;;;;;5033829;28;20598;-74
2021/11/26 04:46:51;;;;;;;4.70;4.30;;;4.20;99.90;;;;;;5019013;28;20570;-75
2021/11/26 04:49:18;;;;;;;5.05;4.65;;;4.20;99.90;;;;;;5013420;28;20456;-74
2021/11/26 04:51:45;;;;;;;5.35;4.90;;;4.20;99.90;;;;;;5007547;28;20222;-76
2021/11/26 04:54:12;;;;;;;5.13;4.72;;;4.20;99.90;;;;;;5016329;28;20626;-73
2021/11/26 04:56:40;;;;;;;5.53;5.13;;;4.20;99.90;;;;;;5017588;28;20227;-76
2021/11/26 04:59:07;;;;;;;5.30;4.88;;;4.20;99.90;;;;;;4985813;28;20230;-74
2021/11/26 05:01:35;;;;;;;5.15;4.72;;;4.20;99.90;;;;;;5013068;28;20251;-74
2021/11/26 05:04:02;;;;;;;4.50;4.20;;;4.20;99.90;;;;;;5016367;28;20216;-75
2021/11/26 05:06:29;;;;;;;5.18;4.68;;;4.20;99.90;;;;;;5015471;28;20226;-74
2021/11/26 05:08:56;;;;;;;5.10;4.70;;;4.20;99.90;;;;;;5021384;28;20223;-73
2021/11/26 05:11:23;;;;;;;5.20;4.80;;;4.30;99.90;;;;;;5001308;28;20219;-74
2021/11/26 05:13:51;;;;;;;4.85;4.45;;;4.30;99.90;;;;;;5024513;28;20226;-74
2021/11/26 05:16:19;;;;;;;5.30;4.90;;;4.20;99.90;;;;;;5017762;28;20660;-75
2021/11/26 05:18:46;;;;;;;5.45;5.05;;;4.20;99.90;;;;;;5020494;28;20218;-75
2021/11/26 05:21:14;;;;;;;5.65;5.15;;;4.20;99.90;;;;;;5020091;28;20714;-76
2021/11/26 05:23:41;;;;;;;5.10;4.70;;;4.20;99.90;;;;;;5020955;28;20482;-75
2021/11/26 05:26:09;;;;;;;4.88;4.47;;;4.20;99.90;;;;;;5018935;28;20219;-74
2021/11/26 05:28:36;;;;;;;5.32;4.93;;;4.30;99.90;;;;;;5014205;28;20228;-74
2021/11/26 05:31:05;;;;;;;4.95;4.63;;;4.30;99.90;;;;;;5013810;28;20235;-76
2021/11/26 05:33:32;;;;;;;5.68;5.13;;;4.30;99.90;;;;;;5017631;28;20660;-74
2021/11/26 05:35:59;;;;;;;5.20;4.80;;;4.30;99.90;;;;;;5021265;28;20227;-74
2021/11/26 05:38:27;;;;;;;5.70;5.20;;;4.30;99.90;;;;;;5019328;28;20227;-74
2021/11/26 05:40:54;;;;;;;5.70;5.30;;;4.20;99.90;;;;;;5017451;28;20536;-76
2021/11/26 05:43:21;;;;;;;6.05;5.63;;;4.20;99.90;;;;;;5018583;28;20215;-74
2021/11/26 05:45:48;;;;;;;5.32;4.93;;;4.20;99.90;;;;;;5017854;28;20607;-73
2021/11/26 05:48:17;;;;;;;5.82;5.28;;;4.20;99.90;;;;;;5018972;28;20227;-77
2021/11/26 05:50:44;;;;;;;5.97;5.47;;;4.20;99.90;;;;;;5013843;28;20716;-74
2021/11/26 05:53:11;;;;;;;6.05;5.55;;;4.20;99.90;;;;;;5018882;28;20242;-72
2021/11/26 05:55:38;;;;;;;5.53;5.13;;;4.20;99.90;;;;;;4988167;28;20223;-75
2021/11/26 05:58:05;;;;;;;6.25;5.75;;;4.10;99.90;;;;;;5020963;28;20231;-77
2021/11/26 06:00:33;;;;;;;6.18;5.68;;;4.10;99.90;;;;;;5019816;28;20721;-74
2021/11/26 06:03:03;;;;;;;6.32;5.80;;;4.10;99.90;;;;;;5019963;28;20224;-74
2021/11/26 06:05:33;;;;;;;6.30;5.80;;;4.10;99.90;;;;;;5021897;28;20219;-75
2021/11/26 06:08:00;;;;;;;6.40;5.90;;;4.10;99.90;;;;;;5022176;28;20609;-75
2021/11/26 06:10:27;;;;;;;6.35;5.85;;;4.10;99.90;;;;;;5022273;28;20736;-75
2021/11/26 06:12:55;;;;;;;6.35;5.85;;;4.10;99.90;;;;;;4938531;28;20280;-75
2021/11/26 06:15:23;;;;;;;6.30;5.80;;;4.10;99.90;;;;;;5023910;28;20710;-75
2021/11/26 06:17:51;;;;;;;6.30;5.80;;;4.10;99.90;;;;;;5030843;28;20232;-74
2021/11/26 06:20:19;;;;;;;6.22;5.72;;;4.10;99.90;;;;;;5023131;28;20223;-80
2021/11/26 06:22:47;;;;;;;6.20;5.70;;;4.10;99.90;;;;;;5022814;28;20238;-75
2021/11/26 06:25:17;;;;;;;5.93;5.40;;;4.10;99.90;;;;;;5019200;28;20223;-73
2021/11/26 06:27:45;;;;;;;6.07;5.57;;;4.10;99.90;;;;;;5020771;28;20223;-76
2021/11/26 06:30:13;;;;;;;6.40;5.90;;;4.00;99.90;;;;;;5024478;28;20248;-75
2021/11/26 06:32:41;;;;;;;6.43;5.93;;;4.00;99.90;;;;;;5018609;28;20216;-75
2021/11/26 06:35:10;;;;;;;5.88;5.28;;;4.00;99.90;;;;;;5020405;28;20232;-76
2021/11/26 06:37:37;;;;;;;5.95;5.45;;;4.00;99.90;;;;;;5022421;28;20223;-74
2021/11/26 06:40:08;;;;;;;5.30;4.90;;;4.00;99.90;;;;;;5018222;28;20227;-74
2021/11/26 06:42:35;;;;;;;5.85;5.40;;;4.10;99.90;;;;;;5019482;28;20232;-72
2021/11/26 06:45:04;;;;;;;5.25;4.85;;;4.10;99.90;;;;;;5014080;28;20235;-75
2021/11/26 06:47:31;;;;;;;5.57;5.18;;;4.10;99.90;;;;;;5023645;28;20326;-75
2021/11/26 06:49:58;;;;;;;5.53;5.03;;;4.10;99.90;;;;;;5012591;28;20224;-72
2021/11/26 06:52:25;;;;;;;5.90;5.40;;;4.20;99.90;;;;;;5003017;28;20227;-73
2021/11/26 06:54:52;;;;;;;6.22;5.72;;;4.20;99.90;;;;;;4995429;28;20232;-73
2021/11/26 06:57:21;;;;;;;6.30;5.80;;;4.20;99.90;;;;;;5003774;28;20626;-73
2021/11/26 06:59:48;;;;;;;6.03;5.53;;;4.20;99.90;;;;;;5008218;28;20482;-74
2021/11/26 07:02:15;;;;;;;5.55;5.05;;;4.20;99.90;;;;;;5002299;28;20418;-75
2021/11/26 07:04:44;;;;;;;6.28;5.78;;;4.20;99.90;;;;;;5003384;28;20219;-73
2021/11/26 07:07:11;;;;;;;6.00;5.40;;;4.20;99.90;;;;;;5009742;28;20224;-76
2021/11/26 07:09:38;;;;;;;6.28;5.78;;;4.20;99.90;;;;;;5001961;28;20220;-74
2021/11/26 07:12:09;;;;;;;6.07;5.57;;;4.20;99.90;;;;;;5004163;28;20232;-73
2021/11/26 07:14:38;;;;;;;5.28;4.88;;;4.20;99.90;;;;;;5005585;28;20219;-73
2021/11/26 07:17:06;;;;;;;6.05;5.55;;;4.20;99.90;;;;;;5004083;28;20880;-72
2021/11/26 07:19:33;;;;;;;6.47;5.97;;;4.30;99.90;;;;;;5003577;28;20224;-75
2021/11/26 07:22:01;;;;;;;6.45;5.85;;;4.30;99.90;;;;;;5003422;28;20231;-74
2021/11/26 07:24:29;;;;;;;7.25;6.65;;;4.30;99.90;;;;;;5004385;28;20228;-76
2021/11/26 07:26:56;;;;;;;6.57;6.07;;;4.30;99.90;;;;;;5003857;28;20601;-75
2021/11/26 07:29:23;;;;;;;6.45;5.88;;;4.30;99.90;;;;;;5004815;28;20239;-73
2021/11/26 07:31:51;;;;;;;7.10;6.40;;;4.30;99.90;;;;;;5006370;28;20709;-75
2021/11/26 07:34:19;;;;;;;6.90;6.30;;;4.30;99.90;;;;;;5004927;28;20232;-73
2021/11/26 07:36:46;;;;;;;6.97;6.38;;;4.30;99.90;;;;;;4999890;28;20238;-75
2021/11/26 07:39:14;;;;;;;6.53;5.93;;;4.30;99.90;;;;;;5002733;28;20265;-75
2021/11/26 07:41:42;;;;;;;6.78;6.20;;;4.30;99.90;;;;;;5003517;28;20232;-77
2021/11/26 07:44:09;;;;;;;7.13;6.53;;;4.30;99.90;;;;;;5007082;28;20223;-76
2021/11/26 07:46:37;;;;;;;8.77;6.28;;;4.30;99.90;;;;;;5003704;28;20729;-74
2021/11/26 07:49:05;;;;;;;6.30;5.80;;;4.40;99.90;;;;;;5001547;28;20613;-74
2021/11/26 07:51:32;;;;;;;7.05;6.45;;;4.40;99.90;;;;;;5003155;28;20753;-72
2021/11/26 07:53:59;;;;;;;6.43;5.95;;;4.50;99.90;;;;;;5003980;28;20250;-75
2021/11/26 07:56:26;;;;;;;6.45;5.95;;;4.50;99.90;;;;;;5001459;28;20231;-73
2021/11/26 07:58:54;;;;;;;6.45;5.93;;;4.50;99.90;;;;;;5005983;28;20740;-75
2021/11/26 08:01:21;;;;;;;6.32;5.82;;;4.60;99.90;;;;;;5012243;28;20687;-73
2021/11/26 08:03:48;;;;;;;5.97;5.47;;;4.70;99.90;;;;;;5003981;28;20215;-76
2021/11/26 08:06:17;;;;;;;6.80;6.20;;;4.80;99.90;;;;;;5002218;28;20472;-76
2021/11/26 08:08:44;;;;;;;6.00;5.50;;;4.80;99.90;;;;;;5004023;28;20224;-73
2021/11/26 08:11:11;;;;;;;6.05;5.57;;;4.90;99.90;;;;;;5003008;28;20879;-74
2021/11/26 08:13:38;;;;;;;6.85;6.32;;;4.90;99.90;;;;;;4976143;28;20228;-74
2021/11/26 08:16:07;;;;;;;7.25;6.55;;;4.90;99.90;;;;;;5006651;28;20219;-75
2021/11/26 08:18:35;;;;;;;7.43;6.68;;;4.90;99.90;;;;;;5004251;28;20231;-73
2021/11/26 08:21:02;;;;;;;8.00;7.30;;;4.90;99.90;;;;;;5003844;28;20227;-74
2021/11/26 08:23:31;;;;;;;8.63;7.93;;;4.90;99.90;;;;;;5003601;28;20701;-73
2021/11/26 08:26:00;;;;;;;7.93;7.22;;;4.90;99.90;;;;;;5005752;28;20230;-74
2021/11/26 08:28:28;;;;;;;7.18;6.47;;;4.80;99.90;;;;;;5016147;28;20216;-74
2021/11/26 08:30:56;;;;;;;7.32;6.65;;;4.80;99.90;;;;;;5015841;28;20219;-72
2021/11/26 08:33:24;;;;;;;8.80;7.90;;;4.70;99.90;;;;;;5009230;28;20237;-75
2021/11/26 08:35:51;;;;;;;8.90;8.02;;;4.70;99.90;;;;;;5013993;28;20279;-76
2021/11/26 08:38:19;;;;;;;7.88;7.28;;;4.70;99.90;;;;;;5014455;28;20233;-74
2021/11/26 08:40:48;;;;;;;8.65;7.90;;;4.70;99.90;;;;;;5013915;28;20231;-75
2021/11/26 08:43:15;;;;;;;8.55;7.75;;;4.70;99.90;;;;;;5016917;28;20215;-73
2021/11/26 08:45:42;;;;;;;8.35;7.60;;;4.80;99.90;;;;;;5019137;28;20224;-74
2021/11/26 08:48:10;;;;;;;8.50;7.80;;;4.80;99.90;;;;;;5015374;28;20690;-74
2021/11/26 08:50:37;;;;;;;8.88;8.13;;;4.90;99.90;;;;;;5014110;28;20247;-74
2021/11/26 08:53:06;;;;;;;8.30;7.50;;;4.90;99.90;;;;;;5007163;28;20237;-76
2021/11/26 08:55:33;;;;;;;8.43;7.60;;;4.90;99.90;;;;;;4999118;28;20234;-76
2021/11/26 08:58:02;;;;;;;8.27;7.57;;;4.90;99.90;;;;;;5027414;28;20230;-74
2021/11/26 09:00:32;;;;;;;9.07;8.18;;;4.90;99.90;;;;;;5011359;28;20223;-73
2021/11/26 09:03:00;;;;;;;11.32;8.40;;;5.00;99.90;;;;;;5013407;28;20226;-73
2021/11/26 09:05:27;;;;;;;8.40;7.50;;;5.10;99.90;;;;;;5014158;28;20689;-72
2021/11/26 09:07:59;;;;;;;7.85;7.07;;;5.10;99.90;;;;;;5010446;28;20227;-72
2021/11/26 09:10:27;;;;;;;6.70;6.10;;;5.20;99.90;;;;;;5010177;28;20216;-71
2021/11/26 09:12:54;;;;;;;7.70;7.00;;;5.20;99.90;;;;;;5011980;28;20577;-73
2021/11/26 09:15:23;;;;;;;7.43;6.72;;;5.20;99.90;;;;;;5017637;28;20230;-74
2021/11/26 09:17:51;;;;;;;6.63;6.10;;;5.20;99.90;;;;;;5011139;28;20277;-73
2021/11/26 09:20:18;;;;;;;8.77;7.88;;;5.20;99.90;;;;;;5014821;28;20305;-72
2021/11/26 09:22:46;;;;;;;10.20;7.40;;;5.20;99.90;;;;;;5011189;28;20218;-72
2021/11/26 09:25:13;;;;;;;8.00;7.30;;;5.20;99.90;;;;;;5012563;28;20693;-73
2021/11/26 09:27:40;;;;;;;7.10;6.50;;;5.20;99.90;;;;;;5011261;28;20665;-71
2021/11/26 09:30:10;;;;;;;6.93;6.32;;;5.30;99.90;;;;;;5011231;28;20457;-72
2021/11/26 09:32:38;;;;;;;6.50;6.00;;;5.40;99.90;;;;;;5012701;28;20239;-75
2021/11/26 09:35:07;;;;;;;6.43;5.93;;;5.50;99.90;;;;;;5014197;28;20220;-73
2021/11/26 09:37:34;;;;;;;6.25;5.65;;;5.60;99.90;;;;;;5013489;28;20228;-71
2021/11/26 09:40:02;;;;;;;5.70;5.20;;;5.60;99.90;;;;;;5013824;28;20605;-73
2021/11/26 09:42:30;;;;;;;6.60;6.00;;;5.60;99.90;;;;;;5014409;28;20223;-73
2021/11/26 09:45:00;;;;;;;5.38;4.97;;;5.70;99.90;;;;;;5019666;28;20293;-74
2021/11/26 09:47:27;;;;;;;4.97;4.63;;;5.70;99.90;;;;;;5094649;22;20214;-81
2021/11/26 09:49:56;;;;;;;5.45;4.95;;;5.60;99.90;;;;;;5033044;28;20306;-83
2021/11/26 09:52:23;;;;;;;5.82;5.32;;;5.60;99.90;;;;;;5009424;28;20227;-81
2021/11/26 09:54:50;;;;;;;6.50;5.82;;;5.60;99.90;;;;;;5036569;28;20831;-86
2021/11/26 09:57:18;;;;;;;6.60;6.10;;;5.50;99.90;;;;;;5038810;28;20237;-79
2021/11/26 09:59:45;;;;;;;6.80;6.20;;;5.60;99.90;;;;;;5037079;28;20239;-86
2021/11/26 10:02:15;;;;;;;7.00;6.40;;;5.70;99.90;;;;;;5034243;28;20631;-82
2021/11/26 10:04:42;;;;;;;7.03;6.43;;;5.70;99.90;;;;;;5022907;28;20241;-82
2021/11/26 10:07:11;;;;;;;7.65;6.85;;;5.80;99.90;;;;;;5016862;28;20223;-85
2021/11/26 10:09:40;;;;;;;8.02;7.30;;;5.80;99.90;;;;;;5047035;28;20223;-79
2021/11/26 10:12:10;;;;;;;8.27;7.38;;;5.80;99.90;;;;;;5041427;28;20646;-78
2021/11/26 10:14:39;;;;;;;8.02;7.13;;;5.80;99.90;;;;;;5040421;28;20280;-83
2021/11/26 10:17:12;;;;;;;7.90;7.20;;;5.90;99.90;;;;;;5037092;28;20608;-83
2021/11/26 10:19:41;;;;;;;7.97;7.18;;;5.90;99.90;;;;;;5036192;28;20242;-79
2021/11/26 10:22:22;;;;;;;8.07;7.32;;;6.10;99.90;;;;;;5036162;28;20234;-83
2021/11/26 10:25:05;;;;;;;8.27;7.47;;;6.20;99.90;;;;;;5039664;28;20230;-81
2021/11/26 10:27:42;;;;;;;8.68;7.97;;;6.30;99.90;;;;;;5036825;28;20237;-81
2021/11/26 10:30:18;;;;;;;9.45;8.55;;;6.40;99.90;;;;;;5016526;28;20257;-81
2021/11/26 10:32:58;;;;;;;8.93;7.97;;;6.50;99.90;;;;;;5047709;28;20592;-78
2021/11/26 10:35:27;;;;;;;10.02;7.95;;;6.60;99.90;;;;;;5036524;28;20226;-84
2021/11/26 10:38:03;;;;;;;9.68;8.25;;;6.70;99.90;;;;;;5044609;28;20215;-84
2021/11/26 10:40:33;;;;;;;10.00;8.20;;;6.80;99.90;;;;;;5037313;28;20727;-78
2021/11/26 10:43:02;;;;;;;9.23;8.23;;;6.90;99.90;;;;;;5033849;28;20484;-78
2021/11/26 10:48:56;;;;;;;10.48;8.93;;;7.00;99.90;;;;;;5017776;28;20227;-81
2021/11/26 11:00:03;;;;;;;9.35;8.32;;;7.30;99.90;;;;;;5034040;28;20243;-86
2021/11/26 11:02:34;;;;;;;8.93;7.78;;;7.40;99.90;;;;;;5044249;28;20240;-80
2021/11/26 11:05:01;;;;;;;10.82;8.57;;;7.50;99.90;;;;;;5038872;28;20246;-77
2021/11/26 11:07:42;;;;;;;9.77;8.35;;;7.60;99.90;;;;;;5041522;28;20233;-79
2021/11/26 11:10:13;;;;;;;9.25;7.53;;;7.70;99.90;;;;;;5043675;28;20272;-80
2021/11/26 11:12:41;;;;;;;9.60;8.23;;;7.80;99.90;;;;;;5041448;28;20297;-81
2021/11/26 11:15:10;;;;;;;9.60;8.45;;;7.80;99.90;;;;;;5035849;28;20234;-78
2021/11/26 11:17:38;;;;;;;9.57;8.68;;;7.80;99.90;;;;;;5039765;28;20572;-79
2021/11/26 11:20:08;;;;;;;8.77;7.97;;;7.80;99.90;;;;;;5044265;28;20230;-78
2021/11/26 11:22:37;;;;;;;9.00;8.05;;;7.90;99.90;;;;;;5042487;28;20802;-78
2021/11/26 11:25:06;;;;;;;12.88;8.10;;;8.10;99.90;;;;;;5042883;28;20218;-76
2021/11/26 11:27:35;;;;;;;9.02;8.10;;;8.20;99.90;;;;;;5046491;28;20281;-77
2021/11/26 11:30:02;;;;;;;10.43;7.82;;;8.20;99.90;;;;;;5022512;28;20222;-82
2021/11/26 11:32:29;;;;;;;8.43;7.60;;;8.20;99.90;;;;;;5054045;28;20586;-80
2021/11/26 11:34:58;;;;;;;7.70;6.97;;;8.20;99.90;;;;;;5039860;28;20223;-78
2021/11/26 11:37:28;;;;;;;8.85;8.05;;;8.20;99.90;;;;;;5044521;28;20222;-76
2021/11/26 11:40:00;;;;;;;8.45;7.60;;;8.20;99.90;;;;;;5040814;28;20746;-78
2021/11/26 11:42:28;;;;;;;8.77;7.97;;;8.20;99.90;;;;;;5047548;28;20218;-78
2021/11/26 11:44:59;;;;;;;9.02;8.07;;;8.30;99.90;;;;;;5046456;28;20581;-77
2021/11/26 11:47:26;;;;;;;8.48;7.50;;;8.40;99.90;;;;;;5023937;28;20230;-79
2021/11/26 11:50:07;;;;;;;8.10;7.40;;;8.50;99.90;;;;;;5040991;28;20211;-77
2021/11/26 11:52:42;;;;;;;10.00;8.02;;;8.70;99.90;;;;;;5042999;28;20222;-76
2021/11/26 11:55:19;;;;;;;8.82;7.95;;;8.90;99.90;;;;;;5046786;28;20234;-76
2021/11/26 11:57:46;;;;;;;9.30;8.35;;;9.00;99.90;;;;;;5046859;28;20229;-77
2021/11/26 12:00:18;;;;;;;8.52;7.72;;;9.10;99.90;;;;;;5035315;28;20248;-77
2021/11/26 12:02:46;;;;;;;8.38;7.57;;;9.30;99.90;;;;;;5048526;28;20234;-77
2021/11/26 12:05:21;;;;;;;9.05;8.15;;;9.40;99.90;;;;;;5048646;28;20227;-77
2021/11/26 12:07:49;;;;;;;10.40;8.07;;;9.50;99.90;;;;;;5047892;28;20218;-76
2021/11/26 12:10:17;;;;;;;8.90;7.72;;;9.70;99.90;;;;;;5039212;28;20652;-77
2021/11/26 12:12:49;;;;;;;10.25;7.65;;;10.00;99.90;;;;;;5048509;28;20227;-74
2021/11/26 12:15:29;;;;;;;8.73;7.80;;;10.30;99.90;;;;;;5049235;28;20713;-75
2021/11/26 12:17:58;;;;;;;8.55;7.63;;;10.70;99.90;;;;;;5024472;28;20218;-75
2021/11/26 12:20:26;;;;;;;7.95;7.10;;;10.80;99.90;;;;;;5048421;28;20230;-75
2021/11/26 12:22:57;;;;;;;8.50;7.72;;;10.60;99.90;;;;;;5048407;28;20215;-76
2021/11/26 12:25:35;;;;;;;7.95;6.97;;;10.30;99.90;;;;;;5046517;28;20313;-75
2021/11/26 12:28:06;;;;;;;7.22;6.53;;;10.10;99.90;;;;;;5040480;28;20241;-75
2021/11/26 12:30:35;;;;;;;7.53;6.80;;;9.90;99.90;;;;;;5044653;28;20709;-76
2021/11/26 12:33:17;;;;;;;6.90;6.22;;;9.80;99.90;;;;;;5046462;28;20309;-76
2021/11/26 12:35:56;;;;;;;7.38;6.65;;;9.60;99.90;;;;;;5045398;28;20301;-77
2021/11/26 12:38:23;;;;;;;7.75;6.35;;;9.50;99.90;;;;;;5047980;28;20318;-75
2021/11/26 12:40:51;;;;;;;7.25;6.55;;;9.40;99.90;;;;;;5048414;28;20227;-76
2021/11/26 12:43:18;;;;;;;8.15;7.00;;;9.30;99.90;;;;;;5047762;28;20250;-77
2021/11/26 12:45:46;;;;;;;7.53;6.82;;;9.20;99.90;;;;;;5039071;28;21014;-76
2021/11/26 12:48:23;;;;;;;7.03;6.18;;;9.10;99.90;;;;;;5044520;28;20657;-77
2021/11/26 12:51:06;;;;;;;6.90;6.30;;;9.00;99.90;;;;;;5046888;28;20214;-76
2021/11/26 12:53:34;;;;;;;6.88;6.28;;;8.90;99.90;;;;;;5044894;28;20250;-78
2021/11/26 12:56:04;;;;;;;7.00;6.30;;;8.80;99.90;;;;;;5046012;28;20219;-77
2021/11/26 12:58:34;;;;;;;6.03;5.28;;;8.70;99.90;;;;;;5044150;28;20246;-77
2021/11/26 13:01:06;;;;;;;7.22;6.55;;;8.50;99.90;;;;;;5042195;28;20812;-76
2021/11/26 13:03:43;;;;;;;6.85;6.25;;;8.60;99.90;;;;;;5041633;28;20559;-77
2021/11/26 13:06:10;;;;;;;8.20;6.60;;;8.80;99.90;;;;;;5046982;28;20222;-78
2021/11/26 13:08:39;;;;;;;7.80;6.97;;;8.90;99.90;;;;;;5048678;28;20226;-77
2021/11/26 13:11:07;;;;;;;9.00;7.20;;;9.20;99.90;;;;;;5044706;28;20234;-77
2021/11/26 13:13:36;;;;;;;8.25;6.68;;;9.30;99.90;;;;;;5046399;28;20313;-76